createdAt,value
2023-02-14T00:00:39.211Z,19.35
2023-02-14T00:03:05.765Z,21.45
2023-02-14T00:05:32.242Z,20.05
2023-02-14T00:07:58.684Z,17.13
2023-02-14T00:10:25.150Z,18.10
2023-02-14T00:12:51.598Z,18.55
2023-02-14T00:15:23.854Z,18.60
2023-02-14T00:17:54.476Z,17.70
2023-02-14T00:20:22.227Z,18.70
2023-02-14T00:22:48.870Z,19.30
2023-02-14T00:25:15.566Z,20.45
2023-02-14T00:27:42.100Z,20.27
2023-02-14T00:30:10.195Z,22.63
2023-02-14T00:32:40.698Z,22.40
2023-02-14T00:35:09.269Z,19.98
2023-02-14T00:37:36.123Z,21.92
2023-02-14T00:40:03.215Z,19.70
2023-02-14T00:42:29.621Z,22.95
2023-02-14T00:44:56.102Z,20.17
2023-02-14T00:47:22.607Z,20.02
2023-02-14T00:49:49.139Z,21.40
2023-02-14T00:52:15.639Z,19.45
2023-02-14T00:54:42.229Z,20.02
2023-02-14T00:57:08.686Z,18.58
2023-02-14T00:59:35.150Z,19.08
2023-02-14T01:02:01.634Z,25.98
2023-02-14T01:04:28.123Z,24.75
2023-02-14T01:06:54.599Z,20.90
2023-02-14T01:09:21.043Z,22.80
2023-02-14T01:11:48.688Z,20.73
2023-02-14T01:14:18.173Z,19.77
2023-02-14T01:19:10.978Z,20.17
2023-02-14T01:21:37.476Z,21.48
2023-02-14T01:24:06.576Z,23.70
2023-02-14T01:26:34.015Z,21.95
2023-02-14T01:29:00.461Z,20.02
2023-02-14T01:31:29.692Z,19.17
2023-02-14T01:33:56.802Z,21.30
2023-02-14T01:36:29.534Z,21.17
2023-02-14T01:38:59.023Z,19.58
2023-02-14T01:41:27.581Z,20.92
2023-02-14T01:43:54.199Z,24.77
2023-02-14T01:46:20.730Z,20.80
2023-02-14T01:48:47.522Z,20.15
2023-02-14T01:51:16.958Z,21.02
2023-02-14T01:53:43.497Z,21.17
2023-02-14T01:56:14.981Z,20.23
2023-02-14T01:58:45.093Z,21.60
2023-02-14T02:01:16.799Z,21.85
2023-02-14T02:03:54.677Z,20.90
2023-02-14T02:06:29.462Z,21.02
2023-02-14T02:09:17.134Z,20.73
2023-02-14T02:11:44.075Z,25.80
2023-02-14T02:14:15.930Z,22.75
2023-02-14T02:16:54.610Z,22.42
2023-02-14T02:19:51.197Z,22.05
2023-02-14T02:22:34.945Z,25.38
2023-02-14T02:25:07.437Z,24.00
2023-02-14T02:27:45.238Z,21.90
2023-02-14T02:30:45.107Z,21.63
2023-02-14T02:33:23.430Z,21.75
2023-02-14T02:35:54.493Z,19.10
2023-02-14T02:38:54.333Z,23.40
2023-02-14T02:41:38.963Z,21.65
2023-02-14T02:44:21.454Z,22.48
2023-02-14T02:47:36.072Z,22.88
2023-02-14T02:50:24.671Z,21.92
2023-02-14T02:53:06.235Z,24.42
2023-02-14T02:56:10.638Z,25.67
2023-02-14T02:58:43.026Z,22.42
2023-02-14T03:01:14.091Z,25.27
2023-02-14T03:04:04.049Z,23.13
2023-02-14T03:06:31.685Z,24.23
2023-02-14T03:08:58.110Z,27.48
2023-02-14T03:11:25.848Z,25.05
2023-02-14T03:14:07.882Z,22.58
2023-02-14T03:16:41.495Z,25.23
2023-02-14T03:19:26.147Z,24.50
2023-02-14T03:22:00.750Z,22.02
2023-02-14T03:24:49.035Z,25.55
2023-02-14T03:27:25.520Z,22.53
2023-02-14T03:30:22.810Z,25.52
2023-02-14T03:33:17.336Z,23.15
2023-02-14T03:36:10.051Z,24.00
2023-02-14T03:39:22.014Z,25.17
2023-02-14T03:41:56.668Z,22.75
2023-02-14T03:44:28.418Z,22.52
2023-02-14T03:47:06.381Z,27.20
2023-02-14T03:49:37.032Z,26.05
2023-02-14T03:52:06.429Z,27.67
2023-02-14T03:57:14.279Z,25.25
2023-02-14T03:59:41.894Z,25.48
2023-02-14T04:02:19.751Z,27.27
2023-02-14T04:04:49.436Z,24.45
2023-02-14T04:07:19.569Z,28.55
2023-02-14T04:09:46.379Z,26.35
2023-02-14T04:12:14.101Z,29.17
2023-02-14T04:14:40.920Z,24.52
2023-02-14T04:17:26.691Z,25.17
2023-02-14T04:19:53.277Z,27.27
2023-02-14T04:22:19.901Z,30.25
2023-02-14T04:24:46.414Z,24.00
2023-02-14T04:27:13.309Z,26.52
2023-02-14T04:29:50.000Z,25.83
2023-02-14T04:32:21.850Z,31.48
2023-02-14T04:34:48.784Z,28.38
2023-02-14T04:37:17.433Z,31.77
2023-02-14T04:39:43.851Z,29.67
2023-02-14T04:42:10.516Z,26.50
2023-02-14T04:44:38.196Z,26.92
2023-02-14T04:47:05.790Z,27.13
2023-02-14T04:49:32.708Z,30.35
2023-02-14T04:51:59.790Z,30.23
2023-02-14T04:54:26.352Z,30.38
2023-02-14T04:56:52.776Z,30.30
2023-02-14T04:59:19.269Z,29.35
2023-02-14T05:01:45.756Z,29.50
2023-02-14T05:04:12.477Z,29.15
2023-02-14T05:06:38.879Z,33.30
2023-02-14T05:09:05.407Z,29.52
2023-02-14T05:11:32.606Z,31.38
2023-02-14T05:13:59.096Z,29.80
2023-02-14T05:16:25.727Z,32.08
2023-02-14T05:18:52.296Z,33.80
2023-02-14T05:21:18.739Z,31.98
2023-02-14T05:23:45.322Z,32.05
2023-02-14T05:26:11.779Z,30.23
2023-02-14T05:28:40.768Z,34.17
2023-02-14T05:31:08.150Z,32.50
2023-02-14T05:33:34.639Z,32.42
2023-02-14T05:36:02.634Z,32.53
2023-02-14T05:38:29.996Z,31.60
2023-02-14T05:40:56.832Z,31.50
2023-02-14T05:43:23.502Z,32.85
2023-02-14T05:45:50.048Z,30.17
2023-02-14T05:48:16.518Z,32.90
2023-02-14T05:50:45.134Z,34.95
2023-02-14T05:53:12.064Z,33.67
2023-02-14T05:55:38.565Z,34.00
2023-02-14T05:58:05.251Z,33.53
2023-02-14T06:00:31.709Z,34.90
2023-02-14T06:02:58.193Z,33.70
2023-02-14T06:05:24.665Z,39.28
2023-02-14T06:07:51.233Z,34.28
2023-02-14T06:10:19.377Z,36.28
2023-02-14T06:12:48.055Z,34.92
2023-02-14T06:15:14.988Z,36.63
2023-02-14T06:17:41.406Z,33.42
2023-02-14T06:20:09.569Z,30.88
2023-02-14T06:22:37.187Z,36.10
2023-02-14T06:25:04.758Z,34.25
2023-02-14T06:27:32.244Z,34.67
2023-02-14T06:29:58.937Z,34.67
2023-02-14T06:32:25.431Z,35.83
2023-02-14T06:34:51.872Z,38.03
2023-02-14T06:37:18.307Z,37.10
2023-02-14T06:39:45.412Z,32.45
2023-02-14T06:42:11.922Z,38.80
2023-02-14T06:44:38.391Z,37.08
2023-02-14T06:47:04.962Z,37.58
2023-02-14T06:49:31.626Z,37.85
2023-02-14T06:52:01.072Z,33.72
2023-02-14T06:54:27.528Z,34.92
2023-02-14T06:56:54.059Z,34.38
2023-02-14T06:59:20.534Z,36.70
2023-02-14T07:01:47.019Z,37.55
2023-02-14T07:04:13.661Z,40.08
2023-02-14T07:06:40.158Z,39.25
2023-02-14T07:09:07.229Z,39.55
2023-02-14T07:11:33.649Z,38.28
2023-02-14T07:14:00.109Z,38.95
2023-02-14T07:16:26.530Z,39.42
2023-02-14T07:18:52.994Z,39.35
2023-02-14T07:21:19.528Z,39.88
2023-02-14T07:23:47.639Z,37.22
2023-02-14T07:26:18.033Z,37.10
2023-02-14T07:28:49.115Z,42.42
2023-02-14T07:31:17.033Z,41.08
2023-02-14T07:33:43.760Z,45.05
2023-02-14T07:36:10.719Z,41.15
2023-02-14T07:38:37.394Z,40.35
2023-02-14T07:41:04.277Z,42.83
2023-02-14T07:43:30.787Z,39.17
2023-02-14T07:45:57.285Z,44.97
2023-02-14T07:48:25.165Z,41.78
2023-02-14T07:50:51.768Z,40.10
2023-02-14T07:53:18.253Z,42.13
2023-02-14T07:55:49.698Z,42.70
2023-02-14T07:58:16.230Z,43.03
2023-02-14T08:00:42.718Z,40.95
2023-02-14T08:03:09.324Z,39.72
2023-02-14T08:05:36.011Z,40.03
2023-02-14T08:08:02.598Z,38.60
2023-02-14T08:10:29.129Z,39.85
2023-02-14T08:13:01.510Z,41.58
2023-02-14T08:15:50.813Z,38.45
2023-02-14T08:18:18.332Z,41.95
2023-02-14T08:20:51.044Z,41.97
2023-02-14T08:23:18.944Z,39.53
2023-02-14T08:25:45.905Z,38.63
2023-02-14T08:28:13.747Z,41.08
2023-02-14T08:30:41.579Z,41.75
2023-02-14T08:33:08.096Z,37.50
2023-02-14T08:35:35.399Z,41.55
2023-02-14T08:38:02.098Z,38.45
2023-02-14T08:40:29.047Z,39.70
2023-02-14T08:42:55.542Z,41.55
2023-02-14T08:45:22.530Z,40.55
2023-02-14T08:47:48.980Z,42.42
2023-02-14T08:50:17.427Z,43.50
2023-02-14T08:52:44.285Z,40.43
2023-02-14T08:55:12.755Z,40.05
2023-02-14T08:57:40.014Z,43.38
2023-02-14T09:00:07.847Z,41.83
2023-02-14T09:02:34.493Z,41.80
2023-02-14T09:05:01.115Z,42.38
2023-02-14T09:07:27.847Z,37.63
2023-02-14T09:09:54.343Z,41.88
2023-02-14T09:12:20.941Z,38.45
2023-02-14T09:14:47.438Z,41.83
2023-02-14T09:17:15.167Z,39.22
2023-02-14T09:19:42.226Z,42.35
2023-02-14T09:22:10.480Z,43.67
2023-02-14T09:24:38.386Z,43.95
2023-02-14T09:27:05.684Z,41.63
2023-02-14T09:29:33.920Z,43.75
2023-02-14T09:32:02.150Z,45.00
2023-02-14T09:34:48.749Z,43.83
2023-02-14T09:37:15.321Z,41.20
2023-02-14T09:39:41.751Z,41.50
2023-02-14T09:42:26.310Z,47.33
2023-02-14T09:45:02.480Z,38.88
2023-02-14T09:47:39.866Z,40.20
2023-02-14T09:50:13.844Z,42.38
2023-02-14T09:52:40.516Z,42.22
2023-02-14T09:55:14.729Z,43.67
2023-02-14T09:57:46.881Z,42.63
2023-02-14T10:00:31.881Z,44.40
2023-02-14T10:03:12.361Z,43.05
2023-02-14T10:06:00.045Z,41.10
2023-02-14T10:08:53.645Z,41.40
2023-02-14T10:11:24.607Z,44.22
2023-02-14T10:13:56.506Z,44.08
2023-02-14T10:16:33.422Z,41.97
2023-02-14T10:19:05.631Z,43.45
2023-02-14T10:21:39.844Z,44.00
2023-02-14T10:25:01.157Z,40.25
2023-02-14T10:27:37.128Z,43.92
2023-02-14T10:30:13.555Z,40.28
2023-02-14T10:33:16.969Z,42.50
2023-02-14T10:35:48.272Z,45.90
2023-02-14T10:38:33.584Z,39.58
2023-02-14T10:41:37.524Z,37.15
2023-02-14T10:44:14.880Z,42.67
2023-02-14T10:46:52.698Z,40.10
2023-02-14T10:49:27.124Z,38.38
2023-02-14T10:52:20.980Z,42.10
2023-02-14T10:54:59.945Z,37.70
2023-02-14T10:57:29.217Z,41.42
2023-02-14T11:00:02.762Z,38.67
2023-02-14T11:02:36.249Z,39.75
2023-02-14T11:05:04.566Z,39.40
2023-02-14T11:07:31.156Z,39.28
2023-02-14T11:09:57.786Z,37.50
2023-02-14T11:12:37.375Z,40.42
2023-02-14T11:15:14.792Z,41.92
2023-02-14T11:17:42.495Z,37.38
2023-02-14T11:20:27.764Z,38.13
2023-02-14T11:22:54.354Z,37.15
2023-02-14T11:25:25.062Z,37.60
2023-02-14T11:28:02.683Z,35.10
2023-02-14T11:30:29.172Z,31.60
2023-02-14T11:32:56.353Z,34.33
2023-02-14T11:35:28.497Z,36.08
2023-02-14T11:37:56.980Z,35.70
2023-02-14T11:40:35.110Z,32.30
2023-02-14T11:43:19.068Z,36.22
2023-02-14T11:45:47.780Z,36.67
2023-02-14T11:48:37.696Z,36.17
2023-02-14T11:51:13.614Z,36.55
2023-02-14T11:53:46.331Z,34.03
2023-02-14T11:56:14.245Z,34.53
2023-02-14T11:59:02.981Z,35.13
2023-02-14T12:01:32.419Z,36.92
2023-02-14T12:04:03.119Z,36.25
2023-02-14T12:06:33.554Z,40.28
2023-02-14T12:09:32.489Z,35.13
2023-02-14T12:12:18.188Z,36.03
2023-02-14T12:14:45.062Z,34.55
2023-02-14T12:17:11.507Z,37.28
2023-02-14T12:19:55.172Z,36.00
2023-02-14T12:22:29.478Z,35.47
2023-02-14T12:25:16.976Z,31.95
2023-02-14T12:28:07.390Z,32.45
2023-02-14T12:30:35.200Z,33.85
2023-02-14T12:33:01.924Z,33.80
2023-02-14T12:35:47.142Z,36.22
2023-02-14T12:38:28.733Z,31.58
2023-02-14T12:41:02.379Z,35.08
2023-02-14T12:43:50.609Z,31.88
2023-02-14T12:49:08.142Z,31.20
2023-02-14T12:51:50.413Z,33.42
2023-02-14T12:54:29.032Z,30.40
2023-02-14T12:56:55.395Z,33.10
2023-02-14T12:59:54.785Z,29.55
2023-02-14T13:05:42.341Z,32.40
2023-02-14T13:08:18.142Z,31.15
2023-02-14T13:11:09.123Z,30.77
2023-02-14T13:14:04.543Z,32.38
2023-02-14T13:16:56.696Z,32.50
2023-02-14T13:19:35.395Z,28.08
2023-02-14T13:22:05.204Z,28.23
2023-02-14T13:24:44.800Z,28.52
2023-02-14T13:27:22.549Z,30.17
2023-02-14T13:30:01.150Z,29.00
2023-02-14T13:32:33.284Z,31.38
2023-02-14T13:35:01.333Z,29.05
2023-02-14T13:37:28.438Z,32.13
2023-02-14T13:40:03.040Z,29.80
2023-02-14T13:42:47.762Z,30.33
2023-02-14T13:45:29.191Z,30.45
2023-02-14T13:48:07.501Z,31.38
2023-02-14T13:50:39.096Z,27.98
2023-02-14T13:53:10.056Z,30.25
2023-02-14T13:55:42.825Z,29.05
2023-02-14T13:58:21.606Z,28.85
2023-02-14T14:00:52.892Z,29.95
2023-02-14T14:03:28.796Z,29.70
2023-02-14T14:06:03.803Z,27.25
2023-02-14T14:08:31.368Z,33.45
2023-02-14T14:11:00.285Z,30.08
2023-02-14T14:13:42.019Z,28.30
2023-02-14T14:16:23.712Z,28.20
2023-02-14T14:18:59.026Z,32.03
2023-02-14T14:21:30.600Z,29.40
2023-02-14T14:24:21.911Z,32.20
2023-02-14T14:27:20.830Z,30.00
2023-02-14T14:29:50.980Z,28.50
2023-02-14T14:32:37.803Z,28.92
2023-02-14T14:35:20.906Z,27.95
2023-02-14T14:37:56.016Z,26.52
2023-02-14T14:40:34.530Z,29.13
2023-02-14T14:43:14.243Z,27.95
2023-02-14T14:45:41.972Z,26.08
2023-02-14T14:48:12.436Z,28.33
2023-02-14T14:50:43.244Z,25.77
2023-02-14T14:53:31.280Z,28.83
2023-02-14T14:55:58.389Z,29.27
2023-02-14T14:58:37.298Z,32.92
2023-02-14T15:01:05.667Z,26.17
2023-02-14T15:03:32.696Z,29.00
2023-02-14T15:06:07.505Z,32.08
2023-02-14T15:08:34.685Z,30.55
2023-02-14T15:11:11.432Z,28.35
2023-02-14T15:13:54.952Z,27.05
2023-02-14T15:16:32.566Z,26.00
2023-02-14T15:19:08.858Z,28.00
2023-02-14T15:21:35.577Z,28.48
2023-02-14T15:24:03.246Z,26.25
2023-02-14T15:26:32.324Z,30.85
2023-02-14T15:29:01.778Z,31.58
2023-02-14T15:34:00.055Z,26.83
2023-02-14T15:36:27.033Z,28.92
2023-02-14T15:38:56.654Z,28.02
2023-02-14T15:41:26.722Z,30.92
2023-02-14T15:43:55.196Z,30.20
2023-02-14T15:46:24.630Z,28.95
2023-02-14T15:51:26.963Z,33.25
2023-02-14T15:53:58.162Z,28.05
2023-02-14T15:56:29.202Z,28.85
2023-02-14T15:58:59.287Z,29.15
2023-02-14T16:01:27.159Z,26.73
2023-02-14T16:03:59.898Z,28.10
2023-02-14T16:06:40.166Z,29.00
2023-02-14T16:09:24.708Z,30.63
2023-02-14T16:11:53.237Z,27.50
2023-02-14T16:14:35.181Z,28.08
2023-02-14T16:17:06.801Z,25.20
2023-02-14T16:19:35.954Z,29.02
2023-02-14T16:22:02.638Z,32.40
2023-02-14T16:24:29.180Z,28.55
2023-02-14T16:26:55.724Z,26.42
2023-02-14T16:29:24.685Z,26.63
2023-02-14T16:34:40.470Z,27.85
2023-02-14T16:37:17.576Z,28.55
2023-02-14T16:39:44.728Z,26.48
2023-02-14T16:42:18.271Z,32.40
2023-02-14T16:44:46.336Z,28.60
2023-02-14T16:47:14.363Z,27.50
2023-02-14T16:49:41.052Z,27.77
2023-02-14T16:52:14.379Z,27.25
2023-02-14T16:54:40.914Z,27.27
2023-02-14T16:57:14.502Z,30.17
2023-02-14T16:59:41.114Z,29.67
2023-02-14T17:02:07.808Z,30.48
2023-02-14T17:04:34.290Z,30.00
2023-02-14T17:07:05.692Z,28.63
2023-02-14T17:09:40.094Z,26.98
2023-02-14T17:12:14.678Z,28.83
2023-02-14T17:14:43.338Z,29.92
2023-02-14T17:17:10.531Z,29.65
2023-02-14T17:19:37.486Z,28.17
2023-02-14T17:22:04.721Z,31.65
2023-02-14T17:24:31.701Z,29.88
2023-02-14T17:26:58.536Z,30.08
2023-02-14T17:29:25.142Z,29.88
2023-02-14T17:31:51.793Z,31.02
2023-02-14T17:34:18.244Z,32.17
2023-02-14T17:36:44.960Z,30.98
2023-02-14T17:39:11.740Z,29.15
2023-02-14T17:41:38.302Z,34.38
2023-02-14T17:44:06.983Z,29.13
2023-02-14T17:46:33.478Z,34.45
2023-02-14T17:49:02.544Z,34.05
2023-02-14T17:51:29.667Z,32.67
2023-02-14T17:53:58.958Z,32.65
2023-02-14T17:58:55.062Z,28.95
2023-02-14T18:01:27.901Z,32.13
2023-02-14T18:03:55.038Z,34.58
2023-02-14T18:06:21.918Z,32.15
2023-02-14T18:08:51.665Z,31.95
2023-02-14T18:11:20.030Z,33.88
2023-02-14T18:13:46.856Z,33.58
2023-02-14T18:16:16.608Z,34.05
2023-02-14T18:18:43.429Z,35.17
2023-02-14T18:21:12.103Z,34.60
2023-02-14T18:23:39.188Z,35.97
2023-02-14T18:26:10.333Z,35.13
2023-02-14T18:28:36.928Z,35.85
2023-02-14T18:31:22.304Z,34.00
2023-02-14T18:33:50.630Z,33.63
2023-02-14T18:36:20.412Z,35.22
2023-02-14T18:38:48.514Z,37.80
2023-02-14T18:41:17.578Z,34.53
2023-02-14T18:43:52.380Z,37.90
2023-02-14T18:46:25.965Z,32.38
2023-02-14T18:48:53.020Z,39.83
2023-02-14T18:51:24.506Z,34.83
2023-02-14T18:53:52.197Z,38.03
2023-02-14T18:56:22.505Z,33.60
2023-02-14T18:58:52.573Z,35.70
2023-02-14T19:01:21.840Z,38.25
2023-02-14T19:03:49.733Z,36.58
2023-02-14T19:06:17.878Z,34.53
2023-02-14T19:08:45.103Z,39.47
2023-02-14T19:11:13.636Z,39.45
2023-02-14T19:13:47.770Z,36.88
2023-02-14T19:16:18.454Z,39.20
2023-02-14T19:18:45.416Z,38.63
2023-02-14T19:21:21.274Z,36.13
2023-02-14T19:23:49.533Z,36.53
2023-02-14T19:26:21.029Z,35.65
2023-02-14T19:28:49.545Z,38.25
2023-02-14T19:31:16.754Z,37.97
2023-02-14T19:33:45.558Z,39.70
2023-02-14T19:36:14.280Z,39.53
2023-02-14T19:38:42.580Z,40.83
2023-02-14T19:41:19.225Z,37.00
2023-02-14T19:43:46.821Z,37.97
2023-02-14T19:46:14.340Z,40.50
2023-02-14T19:48:40.969Z,42.95
2023-02-14T19:51:07.595Z,39.53
2023-02-14T19:53:34.765Z,39.47
2023-02-14T19:56:01.430Z,39.40
2023-02-14T19:58:27.882Z,42.55
2023-02-14T20:00:59.888Z,40.80
2023-02-14T20:03:26.876Z,41.97
2023-02-14T20:05:53.388Z,41.33
2023-02-14T20:08:19.945Z,42.35
2023-02-14T20:10:46.399Z,39.53
2023-02-14T20:13:12.889Z,44.33
2023-02-14T20:15:40.050Z,40.65
2023-02-14T20:18:07.526Z,42.42
2023-02-14T20:20:53.934Z,41.95
2023-02-14T20:23:20.394Z,43.85
2023-02-14T20:25:47.077Z,44.70
2023-02-14T20:28:13.596Z,43.35
2023-02-14T20:30:40.258Z,42.60
2023-02-14T20:33:06.814Z,44.05
2023-02-14T20:35:37.991Z,41.35
2023-02-14T20:38:07.866Z,42.92
2023-02-14T20:40:39.316Z,41.67
2023-02-14T20:43:06.055Z,42.92
2023-02-14T20:45:32.938Z,41.92
2023-02-14T20:48:03.283Z,44.83
2023-02-14T20:50:31.192Z,42.85
2023-02-14T20:52:58.110Z,46.75
2023-02-14T20:55:27.034Z,43.20
2023-02-14T20:57:53.815Z,45.40
2023-02-14T21:00:20.343Z,41.88
2023-02-14T21:02:46.851Z,41.47
2023-02-14T21:05:18.318Z,43.38
2023-02-14T21:07:44.869Z,40.10
2023-02-14T21:10:11.523Z,47.00
2023-02-14T21:12:38.604Z,45.08
2023-02-14T21:15:06.900Z,42.40
2023-02-14T21:17:33.858Z,42.28
2023-02-14T21:20:00.343Z,46.72
2023-02-14T21:22:26.863Z,43.22
2023-02-14T21:24:53.343Z,40.83
2023-02-14T21:27:19.796Z,45.72
2023-02-14T21:29:46.363Z,42.92
2023-02-14T21:32:12.923Z,43.72
2023-02-14T21:34:39.495Z,43.38
2023-02-14T21:37:06.211Z,43.38
2023-02-14T21:39:35.575Z,44.78
2023-02-14T21:44:47.254Z,46.35
2023-02-14T21:47:13.858Z,42.45
2023-02-14T21:49:58.905Z,43.78
2023-02-14T21:52:25.478Z,45.45
2023-02-14T21:54:51.912Z,45.63
2023-02-14T21:57:18.343Z,42.88
2023-02-14T21:59:44.860Z,41.30
2023-02-14T22:02:12.185Z,45.42
2023-02-14T22:04:38.815Z,43.88
2023-02-14T22:07:05.325Z,45.22
2023-02-14T22:09:31.821Z,48.85
2023-02-14T22:11:58.310Z,44.13
2023-02-14T22:14:25.328Z,45.65
2023-02-14T22:16:51.958Z,46.00
2023-02-14T22:19:18.510Z,48.53
2023-02-14T22:21:45.024Z,50.05
2023-02-14T22:24:12.487Z,45.60
2023-02-14T22:26:40.521Z,51.10
2023-02-14T22:29:09.182Z,47.80
2023-02-14T22:31:38.173Z,50.42
2023-02-14T22:34:06.758Z,47.50
2023-02-14T22:36:33.456Z,51.37
2023-02-14T22:38:59.882Z,53.83
2023-02-14T22:41:26.797Z,57.42
2023-02-14T22:43:54.062Z,50.67
2023-02-14T22:46:23.590Z,53.42
2023-02-14T22:48:51.794Z,52.70
2023-02-14T22:51:28.346Z,49.05
2023-02-14T22:54:00.286Z,62.63
2023-02-14T22:56:29.480Z,50.83
2023-02-14T22:58:58.440Z,52.00
2023-02-14T23:01:25.575Z,51.45
2023-02-14T23:03:57.520Z,49.33
2023-02-14T23:06:26.209Z,49.88
2023-02-14T23:08:54.268Z,52.67
2023-02-14T23:11:26.449Z,47.88
2023-02-14T23:14:11.680Z,51.45
2023-02-14T23:16:56.961Z,47.17
2023-02-14T23:19:44.348Z,49.08
2023-02-14T23:22:12.748Z,55.50
2023-02-14T23:24:39.627Z,52.60
2023-02-14T23:27:07.808Z,54.60
2023-02-14T23:29:34.331Z,51.35
2023-02-14T23:32:00.772Z,52.70
2023-02-14T23:34:29.469Z,54.03
2023-02-14T23:36:55.955Z,40.50
2023-02-14T23:39:22.855Z,53.97
2023-02-14T23:41:49.637Z,52.63
2023-02-14T23:44:21.593Z,50.90
2023-02-14T23:46:49.930Z,52.15
2023-02-14T23:49:17.675Z,54.67
2023-02-14T23:51:45.484Z,53.67
2023-02-14T23:54:12.096Z,50.42
2023-02-14T23:56:39.314Z,52.70
2023-02-14T23:59:07.115Z,56.75
